createdAt,value
2024-05-09T00:01:29.900Z,6.93
2024-05-09T00:04:03.012Z,6.80
2024-05-09T00:06:30.561Z,6.55
2024-05-09T00:08:57.579Z,5.95
2024-05-09T00:11:24.881Z,6.18
2024-05-09T00:14:04.730Z,6.05
2024-05-09T00:16:32.079Z,6.10
2024-05-09T00:18:59.594Z,6.40
2024-05-09T00:21:30.091Z,6.20
2024-05-09T00:24:01.098Z,6.43
2024-05-09T00:26:28.720Z,6.05
2024-05-09T00:28:56.124Z,6.07
2024-05-09T00:31:25.377Z,5.72
2024-05-09T00:33:54.352Z,6.00
2024-05-09T00:36:21.647Z,5.43
2024-05-09T00:38:50.419Z,5.75
2024-05-09T00:41:19.658Z,6.35
2024-05-09T00:43:47.039Z,5.57
2024-05-09T00:46:17.107Z,5.85
2024-05-09T00:48:45.235Z,4.90
2024-05-09T00:51:14.643Z,5.45
2024-05-09T00:53:42.372Z,5.43
2024-05-09T00:56:09.708Z,5.60
2024-05-09T00:58:37.435Z,5.35
2024-05-09T01:01:06.602Z,5.40
2024-05-09T01:03:33.966Z,5.03
2024-05-09T01:06:04.012Z,5.72
2024-05-09T01:08:34.197Z,5.25
2024-05-09T01:11:01.479Z,5.60
2024-05-09T01:13:31.497Z,5.57
2024-05-09T01:16:03.654Z,5.35
2024-05-09T01:18:35.876Z,5.15
2024-05-09T01:21:05.943Z,5.10
2024-05-09T01:23:33.650Z,4.88
2024-05-09T01:26:01.476Z,4.75
2024-05-09T01:28:28.522Z,5.45
2024-05-09T01:30:58.359Z,4.85
2024-05-09T01:33:25.587Z,4.72
2024-05-09T01:35:54.032Z,4.90
2024-05-09T01:38:21.129Z,4.90
2024-05-09T01:40:49.635Z,4.25
2024-05-09T01:43:16.737Z,4.82
2024-05-09T01:45:46.747Z,5.30
2024-05-09T01:48:18.086Z,4.60
2024-05-09T01:50:49.036Z,5.38
2024-05-09T01:53:16.064Z,4.88
2024-05-09T01:55:44.508Z,5.13
2024-05-09T01:58:12.252Z,4.50
2024-05-09T02:00:42.626Z,5.43
2024-05-09T02:03:15.872Z,4.70
2024-05-09T02:05:47.127Z,5.07
2024-05-09T02:08:19.275Z,4.93
2024-05-09T02:10:50.043Z,5.28
2024-05-09T02:13:18.055Z,4.70
2024-05-09T02:15:47.088Z,4.90
2024-05-09T02:18:14.695Z,5.28
2024-05-09T02:20:44.186Z,4.85
2024-05-09T02:23:16.771Z,4.72
2024-05-09T02:25:44.571Z,4.95
2024-05-09T02:28:16.697Z,4.35
2024-05-09T02:30:44.488Z,5.63
2024-05-09T02:33:14.722Z,5.72
2024-05-09T02:35:43.445Z,4.78
2024-05-09T02:40:53.820Z,5.07
2024-05-09T02:43:23.565Z,5.40
2024-05-09T02:45:50.550Z,4.95
2024-05-09T02:48:19.863Z,4.55
2024-05-09T02:50:51.389Z,4.90
2024-05-09T02:53:22.117Z,5.10
2024-05-09T02:55:49.152Z,4.88
2024-05-09T02:58:19.558Z,5.00
2024-05-09T03:00:49.290Z,6.20
2024-05-09T03:03:17.159Z,5.25
2024-05-09T03:05:46.819Z,5.05
2024-05-09T03:08:15.085Z,5.32
2024-05-09T03:10:43.677Z,5.35
2024-05-09T03:13:16.355Z,5.70
2024-05-09T03:15:49.782Z,5.28
2024-05-09T03:18:18.721Z,5.70
2024-05-09T03:20:45.961Z,5.57
2024-05-09T03:23:16.375Z,4.97
2024-05-09T03:25:56.873Z,5.63
2024-05-09T03:28:27.312Z,5.47
2024-05-09T03:30:54.341Z,5.40
2024-05-09T03:33:22.901Z,5.65
2024-05-09T03:35:50.429Z,4.95
2024-05-09T03:38:27.130Z,5.07
2024-05-09T03:40:55.681Z,6.10
2024-05-09T03:43:22.693Z,5.82
2024-05-09T03:45:53.866Z,4.97
2024-05-09T03:48:21.228Z,5.53
2024-05-09T03:50:50.900Z,4.70
2024-05-09T03:53:20.194Z,5.38
2024-05-09T03:55:49.921Z,5.53
2024-05-09T03:58:20.822Z,5.30
2024-05-09T04:00:49.000Z,5.35
2024-05-09T04:03:21.294Z,4.97
2024-05-09T04:05:49.254Z,5.07
2024-05-09T04:08:18.191Z,5.53
2024-05-09T04:10:48.802Z,5.57
2024-05-09T04:13:16.331Z,5.13
2024-05-09T04:15:43.614Z,5.45
2024-05-09T04:18:13.019Z,5.32
2024-05-09T04:20:41.358Z,5.28
2024-05-09T04:23:13.729Z,4.90
2024-05-09T04:25:45.750Z,5.85
2024-05-09T04:28:14.493Z,5.55
2024-05-09T04:30:44.439Z,5.03
2024-05-09T04:33:13.999Z,5.40
2024-05-09T04:35:42.854Z,5.65
2024-05-09T04:38:10.583Z,5.50
2024-05-09T04:40:38.169Z,5.43
2024-05-09T04:43:08.455Z,5.60
2024-05-09T04:45:36.711Z,5.88
2024-05-09T04:48:05.383Z,5.25
2024-05-09T04:50:37.440Z,4.93
2024-05-09T04:53:08.499Z,5.10
2024-05-09T04:55:38.360Z,5.00
2024-05-09T04:58:08.544Z,5.03
2024-05-09T05:00:39.127Z,4.68
2024-05-09T05:03:15.624Z,5.22
2024-05-09T05:05:48.368Z,5.00
2024-05-09T05:08:16.641Z,4.57
2024-05-09T05:10:45.625Z,4.97
2024-05-09T05:13:20.937Z,4.93
2024-05-09T05:15:49.983Z,4.53
2024-05-09T05:18:18.788Z,5.13
2024-05-09T05:20:47.332Z,4.43
2024-05-09T05:23:20.659Z,4.72
2024-05-09T05:25:51.168Z,4.68
2024-05-09T05:28:18.542Z,4.30
2024-05-09T05:30:46.546Z,4.10
2024-05-09T05:33:14.707Z,4.13
2024-05-09T05:35:43.590Z,4.47
2024-05-09T05:38:11.085Z,4.10
2024-05-09T05:40:39.866Z,4.32
2024-05-09T05:45:49.800Z,3.97
2024-05-09T05:48:18.934Z,4.53
2024-05-09T05:50:49.054Z,4.32
2024-05-09T05:53:16.382Z,4.40
2024-05-09T05:55:43.508Z,4.47
2024-05-09T05:58:12.519Z,4.75
2024-05-09T06:00:42.388Z,4.40
2024-05-09T06:03:15.998Z,4.63
2024-05-09T06:05:44.492Z,4.93
2024-05-09T06:08:12.340Z,4.82
2024-05-09T06:10:41.032Z,5.60
2024-05-09T06:13:14.556Z,4.32
2024-05-09T06:18:11.091Z,4.90
2024-05-09T06:20:43.799Z,5.90
2024-05-09T06:23:11.777Z,4.90
2024-05-09T06:25:39.241Z,4.90
2024-05-09T06:28:08.347Z,5.10
2024-05-09T06:30:42.763Z,5.20
2024-05-09T06:33:14.669Z,5.30
2024-05-09T06:35:46.085Z,4.85
2024-05-09T06:38:16.571Z,4.43
2024-05-09T06:40:44.919Z,4.60
2024-05-09T06:43:16.871Z,4.80
2024-05-09T06:45:49.194Z,5.05
2024-05-09T06:48:19.743Z,4.35
2024-05-09T06:50:52.732Z,4.60
2024-05-09T06:53:26.103Z,4.43
2024-05-09T06:55:54.712Z,4.35
2024-05-09T06:58:25.664Z,4.95
2024-05-09T07:00:57.312Z,4.18
2024-05-09T07:06:06.959Z,4.40
2024-05-09T07:08:35.405Z,4.45
2024-05-09T07:11:08.380Z,3.88
2024-05-09T08:43:32.648Z,4.25
2024-05-09T08:46:13.568Z,4.18
2024-05-09T08:48:45.405Z,4.13
2024-05-09T08:53:59.462Z,4.25
2024-05-09T08:56:30.719Z,4.38
2024-05-09T08:59:01.309Z,4.43
2024-05-09T09:01:30.950Z,4.45
2024-05-09T12:10:33.816Z,3.80
2024-05-09T12:36:58.029Z,3.40
2024-05-09T12:39:30.664Z,3.90
2024-05-09T12:42:01.668Z,3.13
2024-05-09T12:44:35.215Z,3.22
2024-05-09T13:54:22.340Z,2.55
2024-05-09T13:56:50.190Z,3.25
2024-05-09T13:59:17.217Z,3.40
2024-05-09T14:01:47.819Z,3.65
2024-05-09T14:04:16.540Z,3.00
2024-05-09T14:06:46.621Z,3.22
2024-05-09T14:09:18.730Z,2.78
2024-05-09T14:11:51.552Z,3.07
2024-05-09T14:16:47.456Z,3.08
2024-05-09T14:19:16.809Z,2.60
2024-05-09T14:21:52.126Z,2.53
2024-05-09T14:24:19.357Z,3.47
2024-05-09T14:26:48.498Z,3.03
2024-05-09T14:29:15.674Z,3.17
2024-05-09T14:31:43.135Z,3.15
2024-05-09T14:34:12.151Z,3.45
2024-05-09T14:36:40.676Z,3.42
2024-05-09T14:39:08.378Z,3.25
2024-05-09T14:41:39.338Z,2.90
2024-05-09T14:44:07.716Z,3.35
2024-05-09T14:46:37.757Z,3.10
2024-05-09T14:49:12.173Z,3.40
2024-05-09T15:18:36.304Z,3.03
2024-05-09T15:21:10.741Z,2.83
2024-05-09T15:23:41.500Z,3.25
2024-05-09T15:26:10.719Z,3.17
2024-05-09T15:28:40.326Z,3.33
2024-05-09T15:31:08.983Z,3.45
2024-05-09T15:33:37.679Z,3.40
2024-05-09T15:36:14.609Z,3.30
2024-05-09T15:38:50.008Z,3.20
2024-05-09T15:41:24.431Z,2.97
2024-05-09T15:43:55.482Z,3.03
2024-05-09T15:49:06.580Z,3.80
2024-05-09T15:51:36.663Z,3.05
2024-05-09T15:54:06.343Z,3.72
2024-05-09T15:56:34.283Z,3.03
2024-05-09T15:59:05.958Z,3.25
2024-05-09T16:01:34.264Z,2.67
2024-05-09T16:04:04.645Z,3.20
2024-05-09T16:06:33.985Z,2.78
2024-05-09T16:09:04.944Z,3.17
2024-05-09T16:11:39.809Z,3.00
2024-05-09T16:14:08.492Z,3.05
2024-05-09T16:16:37.786Z,3.08
2024-05-09T16:19:10.501Z,3.10
2024-05-09T16:21:38.554Z,3.17
2024-05-09T16:24:13.431Z,2.45
2024-05-09T16:26:44.458Z,2.53
2024-05-09T16:29:12.360Z,3.17
2024-05-09T16:31:41.511Z,2.60
2024-05-09T20:25:50.275Z,4.03
2024-05-09T20:28:17.493Z,3.03
2024-05-09T20:30:45.235Z,3.38
2024-05-09T20:33:14.241Z,3.50
2024-05-09T20:35:41.672Z,3.55
2024-05-09T20:38:10.187Z,3.78
2024-05-09T20:40:39.188Z,3.20
2024-05-09T20:43:08.174Z,3.28
2024-05-09T20:45:35.916Z,2.90
2024-05-09T20:48:03.438Z,3.10
2024-05-09T20:50:38.426Z,3.72
2024-05-09T20:53:13.486Z,3.13
2024-05-09T20:55:42.630Z,3.72
2024-05-09T20:58:10.569Z,3.78
2024-05-09T21:00:41.842Z,3.80
2024-05-09T21:03:12.832Z,3.65
2024-05-09T21:05:41.937Z,3.10
2024-05-09T21:08:09.569Z,3.90
2024-05-09T22:11:32.375Z,5.03
2024-05-09T22:13:59.402Z,4.68
2024-05-09T22:16:27.134Z,4.97
2024-05-09T22:18:58.191Z,4.55
2024-05-09T22:21:25.188Z,4.93
2024-05-09T22:23:53.063Z,4.20
2024-05-09T22:26:26.230Z,8.45
2024-05-09T22:31:22.017Z,10.57
2024-05-09T22:33:52.283Z,6.13
2024-05-09T22:36:26.147Z,5.68
2024-05-09T22:38:53.077Z,4.85
2024-05-09T22:41:20.010Z,4.40
2024-05-09T22:43:46.954Z,5.45
2024-05-09T22:46:14.584Z,4.13
2024-05-09T22:48:42.840Z,4.90
2024-05-09T22:51:10.388Z,4.28
2024-05-09T22:53:39.016Z,4.95
2024-05-09T22:56:06.762Z,4.50
2024-05-09T22:58:34.824Z,4.55
2024-05-09T23:01:02.075Z,5.47
2024-05-09T23:03:32.045Z,4.40
2024-05-09T23:06:02.414Z,4.90
2024-05-09T23:08:30.880Z,4.78
2024-05-09T23:10:58.857Z,5.10
2024-05-09T23:13:26.540Z,4.15
2024-05-09T23:15:53.677Z,4.63
2024-05-09T23:18:21.203Z,4.90
2024-05-09T23:20:48.554Z,5.13
2024-05-09T23:23:17.802Z,4.28
2024-05-09T23:25:45.339Z,4.65
2024-05-09T23:28:14.421Z,4.80
2024-05-09T23:30:42.273Z,4.60
2024-05-09T23:33:13.626Z,5.18
2024-05-09T23:35:44.397Z,5.10
2024-05-09T23:38:13.325Z,6.15
2024-05-09T23:40:41.960Z,4.78
2024-05-09T23:43:11.142Z,5.22
2024-05-09T23:45:43.246Z,6.50
2024-05-09T23:48:11.024Z,6.10
2024-05-09T23:50:39.816Z,4.90
2024-05-09T23:53:10.963Z,5.93
2024-05-09T23:55:38.478Z,5.90
2024-05-09T23:58:06.468Z,5.70
